Aérodrome :
LOGIN :

S'inscrire | Disclaimer

   EN    FR    IT 

 










Légende :    VFR   VFR Marginal   IFR   IFR Intensif   IFR Très Intensif
Visi : 
Plafond : 
>= 8 km
>= 3000ft
5 à 8 km
1000 à 3000 ft
1500m à 5 km
500 à 1000 ft
800 à 1500m
200 à 500 ft
< 800m
< 200 ft
Symboles :   Orages  Brouillard  Fortes neiges  Fortes précipitations  Vent > 20 kt
SIGMETs :   Divers  Orages  Givrage  Turbulence  Onde Orograph.  Cendres Volcan.






- Altitude de l'aérodrome : 821 ft
- Code IATA : LYS


LFLL - Lyon St Exupéry / Satolas

DERNIER METAR :
  • 071900Z 00000KT CAVOK 08/06 Q1022 NOSIG

METARs EXPIRÉS :
  • 071830Z 00000KT CAVOK 09/06 Q1022 NOSIG
  • 071800Z 01003KT CAVOK 09/06 Q1022 NOSIG
  • 071730Z 00000KT 9999 FEW046 BKN060 09/06 Q1022 NOSIG
  • 071700Z 23003KT 9999 FEW046 BKN056 09/06 Q1021 NOSIG
  • 071630Z 00000KT 9999 SCT043 BKN056 10/06 Q1021 NOSIG

TAF TAF LFLL
Valide du 07 à 18h jusqu'au 09 à 00h UTC


071700Z 0718/0824 16003KT 9999 BKN043
TEMPO 0720/0807 3000 BR
PROB30
TEMPO 0722/0805 0600 FG VV///
BECMG 0807/0809 18010KT CAVOK
TEMPO 0817/0820 16015G25KT RA BKN030



MET'MAP, la Météo Aéronautique d'un coup d'oeil ! - Copyright ORBIFLY Décembre 2007 - Disclaimer

ORBIFLY MET'MAP TEAM :

Programmation & Développement : Alexandra Zaïnal
Sur une idée originale de : Baudouin d'Aumeries
Assistance à la programmation : Marc-Olivier Méhu
Soutien technique & logistique : Manuel Goepfert

Contact : metmap@orbifly.com




SOURCES & CREDITS :

   NOAA